Time;durP1;ratioP1;P1;durP2;ratioP2;P2;SDS_P1;SDS_P2;PMS_P1;PMS_P2;Temp;Humidity;BMP_temperature;BMP_pressure;BME280_temperature;BME280_humidity;BME280_pressure;Samples;Min_cycle;Max_cycle;Signal;HPM_P1;HPM_P2
2022/03/19 00:02:21;;;;;;;;;;;;;;;0.72;88.13;102292.31;6243957;23;19911;-79
2022/03/19 00:04:47;;;;;;;;;;;;;;;0.74;88.17;102284.56;6216771;23;19923;-79
2022/03/19 00:07:13;;;;;;;;;;;;;;;0.75;87.58;102302.59;6216804;23;20281;-79
2022/03/19 00:09:41;;;;;;;;;;;;;;;0.73;86.50;102288.44;6217048;23;19915;-79
2022/03/19 00:12:07;;;;;;;;;;;;;;;0.76;86.04;102296.00;6217917;23;19947;-79
2022/03/19 00:14:32;;;;;;;;;;;;;;;0.77;85.57;102294.09;6243208;23;19922;-80
2022/03/19 00:16:59;;;;;;;;;;;;;;;0.66;85.69;102293.53;6243611;23;19918;-80
2022/03/19 00:19:24;;;;;;;;;;;;;;;0.57;85.59;102295.44;6243296;23;19916;-80
2022/03/19 00:21:49;;;;;;;;;;;;;;;0.55;84.82;102289.50;6243910;23;19915;-79
2022/03/19 00:24:15;;;;;;;;;;;;;;;0.47;84.56;102295.72;6243983;23;19916;-79
2022/03/19 00:26:40;;;;;;;;;;;;;;;0.45;84.90;102292.47;6243441;23;19916;-79
2022/03/19 00:29:06;;;;;;;;;;;;;;;0.42;85.15;102293.94;6243564;23;19995;-79
2022/03/19 00:31:31;;;;;;;;;;;;;;;0.42;85.26;102293.13;6243249;23;20164;-79
2022/03/19 00:33:57;;;;;;;;;;;;;;;0.43;85.34;102286.53;6243320;23;19968;-79
2022/03/19 00:36:22;;;;;;;;;;;;;;;0.40;85.75;102273.53;6243871;23;20281;-79
2022/03/19 00:38:48;;;;;;;;;;;;;;;0.40;85.76;102281.72;6243011;23;19951;-79
2022/03/19 00:41:13;;;;;;;;;;;;;;;0.40;86.15;102268.88;6243822;23;19915;-79
2022/03/19 00:43:39;;;;;;;;;;;;;;;0.42;87.24;102265.81;6243604;23;19916;-79
2022/03/19 00:46:05;;;;;;;;;;;;;;;0.45;87.63;102276.09;6243621;23;19911;-79
2022/03/19 00:48:30;;;;;;;;;;;;;;;0.36;87.53;102278.00;6243271;23;19919;-79
2022/03/19 00:50:57;;;;;;;;;;;;;;;0.38;87.05;102264.84;6243975;23;19920;-79
2022/03/19 00:53:22;;;;;;;;;;;;;;;0.38;86.30;102257.44;6243367;23;19918;-80
2022/03/19 00:55:47;;;;;;;;;;;;;;;0.28;88.06;102259.66;6244124;23;19946;-87
2022/03/19 00:58:14;;;;;;;;;;;;;;;0.20;89.13;102261.22;6244286;23;19924;-87
2022/03/19 01:00:39;;;;;;;;;;;;;;;0.16;88.22;102264.91;6244391;23;19923;-87
2022/03/19 01:03:06;;;;;;;;;;;;;;;0.06;87.34;102256.94;6216754;23;19912;-87
2022/03/19 01:05:31;;;;;;;;;;;;;;;0.10;86.70;102260.66;6244049;23;20391;-86
2022/03/19 01:07:57;;;;;;;;;;;;;;;0.09;86.40;102267.22;6244049;23;19969;-87
2022/03/19 01:10:23;;;;;;;;;;;;;;;0.10;86.07;102266.13;6243858;23;20330;-87
2022/03/19 01:12:49;;;;;;;;;;;;;;;0.00;85.87;102262.53;6243298;23;19919;-85
2022/03/19 01:15:15;;;;;;;;;;;;;;;-0.03;85.85;102265.09;6243645;23;19923;-87
2022/03/19 01:17:40;;;;;;;;;;;;;;;-0.01;85.95;102257.41;6243110;23;19911;-88
2022/03/19 01:20:10;;;;;;;;;;;;;;;0.03;85.79;102258.41;6243632;23;19919;-87
2022/03/19 01:22:36;;;;;;;;;;;;;;;-0.01;85.96;102262.88;6217337;23;19915;-87
2022/03/19 01:25:04;;;;;;;;;;;;;;;-0.01;85.27;102258.22;6243119;23;19916;-87
2022/03/19 01:27:31;;;;;;;;;;;;;;;0.00;85.36;102253.56;6243722;23;19922;-86
2022/03/19 01:29:56;;;;;;;;;;;;;;;0.00;86.33;102253.56;6216847;23;19958;-87
2022/03/19 01:32:22;;;;;;;;;;;;;;;0.02;88.00;102243.13;6245099;23;20338;-79
2022/03/19 01:34:47;;;;;;;;;;;;;;;-0.01;89.34;102241.03;6245414;23;20515;-88
2022/03/19 01:37:12;;;;;;;;;;;;;;;0.02;89.52;102239.59;6217977;23;19916;-87
2022/03/19 01:39:38;;;;;;;;;;;;;;;0.04;89.44;102237.38;6245277;23;19915;-87
2022/03/19 01:42:04;;;;;;;;;;;;;;;0.11;89.75;102243.19;6245071;23;19974;-88
2022/03/19 01:44:29;;;;;;;;;;;;;;;0.18;89.45;102233.44;6245380;23;19922;-87
2022/03/19 01:47:02;;;;;;;;;;;;;;;0.22;88.84;102239.06;6245079;23;19912;-88
2022/03/19 01:49:28;;;;;;;;;;;;;;;0.32;88.59;102227.88;6244868;23;19927;-87
2022/03/19 01:51:54;;;;;;;;;;;;;;;0.38;87.72;102234.78;6218805;23;19915;-87
2022/03/19 01:54:22;;;;;;;;;;;;;;;0.33;87.30;102235.75;6245229;23;19994;-88
2022/03/19 01:56:48;;;;;;;;;;;;;;;0.33;87.34;102224.00;6218473;23;19916;-87
2022/03/19 01:59:13;;;;;;;;;;;;;;;0.41;87.27;102220.50;6193422;23;19911;-88
2022/03/19 02:01:39;;;;;;;;;;;;;;;0.52;88.79;102227.31;6211722;22;19983;-88
2022/03/19 02:04:05;;;;;;;;;;;;;;;0.58;89.15;102215.13;6243973;23;19919;-89
2022/03/19 02:06:30;;;;;;;;;;;;;;;0.60;88.39;102223.81;6218572;23;19923;-90
2022/03/19 02:08:56;;;;;;;;;;;;;;;0.53;88.76;102226.19;6218478;23;20494;-90
2022/03/19 02:11:22;;;;;;;;;;;;;;;0.43;88.70;102223.75;6245037;23;19946;-90
2022/03/19 02:13:47;;;;;;;;;;;;;;;0.31;88.18;102220.81;6243167;23;20302;-90
2022/03/19 02:16:12;;;;;;;;;;;;;;;0.24;87.37;102217.72;6244783;23;19962;-91
2022/03/19 02:18:38;;;;;;;;;;;;;;;0.20;87.10;102214.03;6243729;23;19961;-90
2022/03/19 02:21:03;;;;;;;;;;;;;;;0.13;86.37;102216.38;6245619;23;19922;-90
2022/03/19 02:26:14;;;;;;;;;;;;;;;-0.10;88.54;102219.16;6222632;23;20046;-90
2022/03/19 02:28:39;;;;;;;;;;;;;;;-0.18;88.84;102219.91;6244714;23;19958;-90
2022/03/19 02:31:04;;;;;;;;;;;;;;;-0.15;88.29;102215.75;6245315;23;20253;-90
2022/03/19 02:33:30;;;;;;;;;;;;;;;-0.18;87.98;102209.00;6245122;23;19912;-89
2022/03/19 02:35:55;;;;;;;;;;;;;;;-0.10;87.75;102208.25;6244972;23;19946;-90
2022/03/19 02:38:20;;;;;;;;;;;;;;;-0.19;87.92;102207.38;6244286;23;19919;-90
2022/03/19 02:40:46;;;;;;;;;;;;;;;-0.23;88.27;102211.84;6245108;23;19918;-89
2022/03/19 02:43:11;;;;;;;;;;;;;;;-0.25;88.85;102203.19;6244582;23;19954;-90
2022/03/19 02:45:36;;;;;;;;;;;;;;;-0.23;88.20;102202.84;6244540;23;19923;-90
2022/03/19 02:48:02;;;;;;;;;;;;;;;-0.20;87.71;102200.31;6244837;23;19919;-91
2022/03/19 02:50:36;;;;;;;;;;;;;;;-0.17;87.66;102205.16;6217960;23;19994;-90
2022/03/19 02:53:03;;;;;;;;;;;;;;;-0.15;87.72;102199.38;6244684;23;19915;-89
2022/03/19 02:55:36;;;;;;;;;;;;;;;-0.17;88.01;102205.16;6245019;23;19916;-91
2022/03/19 02:58:01;;;;;;;;;;;;;;;-0.19;88.00;102201.94;6244470;23;19916;-90
2022/03/19 03:00:27;;;;;;;;;;;;;;;-0.17;88.07;102199.72;6218291;23;19915;-90
2022/03/19 03:02:52;;;;;;;;;;;;;;;-0.20;89.96;102189.41;6243939;23;19947;-90
2022/03/19 03:05:18;;;;;;;;;;;;;;;-0.15;89.40;102189.28;6244663;23;19924;-90
2022/03/19 03:07:43;;;;;;;;;;;;;;;-0.12;89.68;102194.09;6244221;23;19990;-90
2022/03/19 03:10:09;;;;;;;;;;;;;;;-0.09;90.07;102192.69;6244633;23;20329;-90
2022/03/19 03:12:35;;;;;;;;;;;;;;;-0.10;90.03;102186.41;6244345;23;19920;-87
2022/03/19 03:15:00;;;;;;;;;;;;;;;-0.05;89.27;102182.75;6244392;23;19920;-90
2022/03/19 03:17:26;;;;;;;;;;;;;;;-0.02;88.60;102188.38;6244709;23;20297;-90
2022/03/19 03:19:52;;;;;;;;;;;;;;;0.02;89.86;102185.84;6244490;23;19916;-90
2022/03/19 03:22:17;;;;;;;;;;;;;;;0.06;89.82;102186.81;6217956;23;20001;-90
2022/03/19 03:24:43;;;;;;;;;;;;;;;0.06;91.26;102180.56;6244061;23;19911;-90
2022/03/19 03:27:08;;;;;;;;;;;;;;;0.09;91.51;102186.19;6244603;23;19930;-90
2022/03/19 03:29:33;;;;;;;;;;;;;;;0.12;91.11;102185.56;6244604;23;19922;-90
2022/03/19 03:31:59;;;;;;;;;;;;;;;0.15;90.41;102181.41;6244547;23;19930;-90
2022/03/19 03:34:25;;;;;;;;;;;;;;;0.11;89.86;102180.41;6217725;23;19916;-79
2022/03/19 03:36:50;;;;;;;;;;;;;;;0.11;90.26;102172.22;6244128;23;19919;-79
2022/03/19 03:39:15;;;;;;;;;;;;;;;0.11;89.87;102174.97;6244074;23;19915;-79
2022/03/19 03:41:41;;;;;;;;;;;;;;;0.19;90.28;102179.66;6244215;23;19915;-78
2022/03/19 03:44:06;;;;;;;;;;;;;;;0.19;89.43;102175.00;6217223;23;20010;-79
2022/03/19 03:46:31;;;;;;;;;;;;;;;0.28;89.02;102177.78;6244427;23;19916;-79
2022/03/19 03:48:57;;;;;;;;;;;;;;;0.27;88.39;102176.16;6243675;23;19969;-79
2022/03/19 03:51:22;;;;;;;;;;;;;;;0.26;88.54;102174.53;6244520;23;19934;-79
2022/03/19 03:53:48;;;;;;;;;;;;;;;0.24;88.02;102180.31;6243795;23;19976;-89
2022/03/19 03:56:13;;;;;;;;;;;;;;;0.28;88.01;102167.66;6244382;23;19912;-89
2022/03/19 03:58:41;;;;;;;;;;;;;;;0.31;88.62;102168.94;6244078;23;19924;-90
2022/03/19 04:01:07;;;;;;;;;;;;;;;0.30;88.35;102167.31;6244357;23;19911;-90
2022/03/19 04:03:33;;;;;;;;;;;;;;;0.32;87.94;102162.38;6243640;23;19915;-90
2022/03/19 04:05:58;;;;;;;;;;;;;;;0.33;87.85;102163.94;6243598;23;19919;-89
2022/03/19 04:08:24;;;;;;;;;;;;;;;0.38;87.62;102161.09;6243646;23;20330;-89
2022/03/19 04:10:49;;;;;;;;;;;;;;;0.44;87.64;102154.38;6243985;23;19922;-90
2022/03/19 04:13:15;;;;;;;;;;;;;;;0.49;87.32;102151.47;6244008;23;20253;-91
2022/03/19 04:15:40;;;;;;;;;;;;;;;0.54;87.47;102150.53;6243939;23;19912;-90
2022/03/19 04:18:06;;;;;;;;;;;;;;;0.55;87.45;102142.03;6243974;23;19919;-90
2022/03/19 04:20:31;;;;;;;;;;;;;;;0.55;86.72;102133.84;6216889;23;19915;-90
2022/03/19 04:22:57;;;;;;;;;;;;;;;0.50;87.15;102147.63;6243577;23;19994;-90
2022/03/19 04:25:23;;;;;;;;;;;;;;;0.54;87.14;102137.69;6217309;23;19915;-90
2022/03/19 04:27:49;;;;;;;;;;;;;;;0.59;86.98;102145.72;6216812;23;19920;-90
2022/03/19 04:30:15;;;;;;;;;;;;;;;0.62;86.91;102145.09;6217283;23;19916;-90
2022/03/19 04:32:41;;;;;;;;;;;;;;;0.61;87.17;102143.47;6243832;23;19918;-90
2022/03/19 04:36:29;;;;;;;;;;;;;;;0.65;86.83;102138.19;6243965;23;19923;-90
2022/03/19 04:37:53;;;;;;;;;;;;;;;0.61;88.54;102131.75;6242824;23;19923;-89
2022/03/19 04:40:18;;;;;;;;;;;;;;;0.65;88.72;102122.59;6243368;23;20245;-91
2022/03/19 04:42:44;;;;;;;;;;;;;;;0.71;89.26;102140.44;6243489;23;19922;-90
2022/03/19 04:45:09;;;;;;;;;;;;;;;0.71;89.75;102137.72;6243678;23;19923;-90
2022/03/19 04:47:34;;;;;;;;;;;;;;;0.72;90.00;102139.31;6243922;23;19989;-90
2022/03/19 04:50:00;;;;;;;;;;;;;;;0.77;90.44;102141.88;6243223;23;19916;-90
2022/03/19 04:52:26;;;;;;;;;;;;;;;0.78;90.45;102146.22;6243758;23;20231;-90
2022/03/19 04:54:53;;;;;;;;;;;;;;;0.80;90.57;102137.72;6243535;23;20231;-90
2022/03/19 04:57:18;;;;;;;;;;;;;;;0.82;90.73;102130.81;6243447;23;19912;-90
2022/03/19 04:59:43;;;;;;;;;;;;;;;0.90;89.98;102140.13;6243337;23;19994;-90
2022/03/19 05:02:09;;;;;;;;;;;;;;;0.93;90.84;102134.81;6243575;23;19915;-90
2022/03/19 05:04:34;;;;;;;;;;;;;;;0.98;90.67;102122.13;6243380;23;19916;-91
2022/03/19 05:07:00;;;;;;;;;;;;;;;0.99;90.54;102138.22;6245022;23;19970;-91
2022/03/19 05:12:16;;;;;;;;;;;;;;;0.96;91.08;102140.78;6213586;23;20357;-90
2022/03/19 05:14:41;;;;;;;;;;;;;;;0.98;90.98;102139.31;6218622;23;19922;-89
2022/03/19 05:17:07;;;;;;;;;;;;;;;1.02;90.94;102126.63;6245203;23;20287;-90
2022/03/19 05:19:33;;;;;;;;;;;;;;;1.07;90.77;102131.13;6246371;23;19916;-91
2022/03/19 05:21:58;;;;;;;;;;;;;;;1.10;90.81;102128.56;6245500;23;19920;-90
2022/03/19 05:24:23;;;;;;;;;;;;;;;1.09;91.16;102132.44;6245639;23;20227;-90
2022/03/19 05:26:49;;;;;;;;;;;;;;;1.07;91.40;102126.47;6245293;23;19915;-90
2022/03/19 05:29:14;;;;;;;;;;;;;;;1.09;90.86;102131.63;6245404;23;20018;-90
2022/03/19 05:31:42;;;;;;;;;;;;;;;1.07;89.93;102128.41;6219663;23;19964;-90
2022/03/19 05:36:52;;;;;;;;;;;;;;;1.10;88.84;102125.81;6244822;23;19940;-89
2022/03/19 05:39:17;;;;;;;;;;;;;;;1.11;88.97;102123.91;6218344;23;19927;-90
2022/03/19 05:41:43;;;;;;;;;;;;;;;1.08;88.69;102127.28;6245713;23;19915;-89
2022/03/19 05:44:08;;;;;;;;;;;;;;;1.06;88.86;102126.78;6244793;23;19911;-90
2022/03/19 05:46:34;;;;;;;;;;;;;;;1.04;89.00;102129.06;6193581;23;19994;-90
2022/03/19 05:48:59;;;;;;;;;;;;;;;0.96;89.66;102127.13;6244481;23;19908;-89
2022/03/19 05:51:25;;;;;;;;;;;;;;;0.80;90.97;102113.94;6245325;23;19972;-90
2022/03/19 05:53:50;;;;;;;;;;;;;;;0.83;91.22;102124.22;6244999;23;19958;-90
2022/03/19 05:56:17;;;;;;;;;;;;;;;0.92;91.63;102129.69;6245447;23;19924;-90
2022/03/19 05:58:43;;;;;;;;;;;;;;;0.96;91.63;102127.13;6245376;23;19915;-90
2022/03/19 06:01:09;;;;;;;;;;;;;;;1.03;92.08;102124.72;6218111;23;20363;-91
2022/03/19 06:03:34;;;;;;;;;;;;;;;1.07;92.26;102123.75;6244796;23;19950;-89
2022/03/19 06:06:00;;;;;;;;;;;;;;;1.07;92.30;102128.41;6245051;23;19922;-90
2022/03/19 06:08:25;;;;;;;;;;;;;;;1.12;91.47;102131.78;6218258;23;19956;-90
2022/03/19 06:10:51;;;;;;;;;;;;;;;1.16;91.11;102126.47;6245199;23;19915;-90
2022/03/19 06:13:16;;;;;;;;;;;;;;;1.21;90.12;102131.78;6245152;23;19922;-91
2022/03/19 06:15:41;;;;;;;;;;;;;;;1.23;89.47;102126.78;6245072;23;19922;-90
2022/03/19 06:18:07;;;;;;;;;;;;;;;1.26;88.50;102126.13;6243972;23;19919;-90
2022/03/19 06:20:32;;;;;;;;;;;;;;;1.29;88.39;102123.56;6245056;23;19922;-90
2022/03/19 06:22:58;;;;;;;;;;;;;;;1.34;88.05;102122.59;6244162;23;20341;-90
2022/03/19 06:25:24;;;;;;;;;;;;;;;1.38;88.09;102124.34;6244447;23;19911;-89
2022/03/19 06:27:49;;;;;;;;;;;;;;;1.34;87.87;102114.38;6244706;23;19962;-91
2022/03/19 06:30:14;;;;;;;;;;;;;;;1.39;88.04;102125.16;6245116;23;20271;-90
2022/03/19 06:32:41;;;;;;;;;;;;;;;1.45;88.34;102123.88;6244946;23;19920;-90
2022/03/19 06:35:07;;;;;;;;;;;;;;;1.49;88.68;102124.03;6244190;23;19923;-90
2022/03/19 06:37:33;;;;;;;;;;;;;;;1.53;88.42;102123.06;6244241;23;19919;-90
2022/03/19 06:40:06;;;;;;;;;;;;;;;1.53;88.92;102119.50;6240859;23;20246;-89
2022/03/19 06:42:32;;;;;;;;;;;;;;;1.48;89.19;102123.22;6242220;23;20292;-89
2022/03/19 06:44:57;;;;;;;;;;;;;;;1.50;89.28;102120.94;6241231;23;19946;-89
2022/03/19 06:47:22;;;;;;;;;;;;;;;1.50;88.84;102104.53;6242133;23;19942;-90
2022/03/19 06:49:50;;;;;;;;;;;;;;;1.57;88.12;102121.28;6188937;23;19911;-90
2022/03/19 06:52:15;;;;;;;;;;;;;;;1.60;88.25;102109.66;6214994;23;19911;-89
2022/03/19 06:54:43;;;;;;;;;;;;;;;1.64;88.34;102109.81;6241375;23;20594;-90
2022/03/19 06:57:09;;;;;;;;;;;;;;;1.63;88.22;102105.47;6240786;23;20250;-90
2022/03/19 06:59:34;;;;;;;;;;;;;;;1.65;88.17;102111.44;6240598;23;19911;-89
2022/03/19 07:02:03;;;;;;;;;;;;;;;1.58;89.71;102106.44;6240140;23;19915;-89
2022/03/19 07:04:28;;;;;;;;;;;;;;;1.64;88.85;102102.41;6241612;23;20387;-78
2022/03/19 07:06:54;;;;;;;;;;;;;;;1.68;88.73;102100.63;6240536;23;19915;-78
2022/03/19 07:09:19;;;;;;;;;;;;;;;1.69;88.78;102099.50;6241273;23;20284;-78
2022/03/19 07:11:44;;;;;;;;;;;;;;;1.70;88.91;102119.47;6240438;23;20367;-79
2022/03/19 07:14:10;;;;;;;;;;;;;;;1.71;88.66;102110.09;6242044;23;20443;-78
2022/03/19 07:16:37;;;;;;;;;;;;;;;1.75;88.70;102105.59;6242081;23;19916;-78
2022/03/19 07:19:02;;;;;;;;;;;;;;;1.72;89.12;102098.84;6215299;23;19915;-78
2022/03/19 07:21:28;;;;;;;;;;;;;;;1.67;89.44;102104.50;6241552;23;20229;-78
2022/03/19 07:23:53;;;;;;;;;;;;;;;1.67;89.49;102112.69;6241355;23;19916;-78
2022/03/19 07:26:18;;;;;;;;;;;;;;;1.65;89.91;102112.25;6241319;23;19957;-78
2022/03/19 07:28:44;;;;;;;;;;;;;;;1.75;89.74;102122.00;6241663;23;19998;-78
2022/03/19 07:31:09;;;;;;;;;;;;;;;1.86;89.07;102096.69;6241622;23;19919;-78
2022/03/19 07:33:34;;;;;;;;;;;;;;;1.86;89.51;102124.06;6214895;23;19916;-78
2022/03/19 07:36:03;;;;;;;;;;;;;;;1.88;89.49;102127.28;6242119;23;19911;-78
2022/03/19 07:38:30;;;;;;;;;;;;;;;1.80;88.70;102125.38;6215465;23;20078;-78
2022/03/19 07:43:40;;;;;;;;;;;;;;;1.78;88.96;102126.84;6241646;23;20392;-78
2022/03/19 15:54:23;;;;;;;;;;;;;;;10.82;44.48;101876.38;6243369;22;19977;-79
2022/03/19 15:56:49;;;;;;;;;;;;;;;10.43;44.24;101881.84;6244100;23;20330;-79
2022/03/19 15:59:14;;;;;;;;;;;;;;;10.16;44.92;101882.13;6244355;23;20238;-79
2022/03/19 16:01:41;;;;;;;;;;;;;;;10.02;45.49;101879.28;6244527;23;19923;-79
2022/03/19 16:04:07;;;;;;;;;;;;;;;10.06;45.81;101880.09;6244675;23;20310;-79
2022/03/19 16:06:33;;;;;;;;;;;;;;;10.07;46.06;101884.41;6243787;23;20357;-79
2022/03/19 16:08:58;;;;;;;;;;;;;;;9.94;46.08;101885.97;6244383;23;19966;-79
2022/03/19 16:11:25;;;;;;;;;;;;;;;9.90;46.63;101889.91;6242820;23;20134;-79
2022/03/19 16:13:51;;;;;;;;;;;;;;;9.92;46.92;101884.75;6244339;23;19920;-79
2022/03/19 16:16:16;;;;;;;;;;;;;;;9.79;47.14;101878.72;6216860;23;19921;-78
2022/03/19 16:18:43;;;;;;;;;;;;;;;9.59;47.19;101891.25;6244384;23;20364;-79
2022/03/19 16:21:09;;;;;;;;;;;;;;;9.60;48.11;101890.88;6244145;23;19919;-79
2022/03/19 16:23:34;;;;;;;;;;;;;;;9.52;47.95;101902.31;6244243;23;20364;-79
2022/03/19 16:26:02;;;;;;;;;;;;;;;9.52;48.29;101899.53;6217378;23;19916;-78
2022/03/19 16:28:27;;;;;;;;;;;;;;;9.31;48.95;101887.13;6217025;23;19916;-78
2022/03/19 16:30:53;;;;;;;;;;;;;;;9.20;48.84;101896.50;6244309;23;19963;-79
2022/03/19 16:33:18;;;;;;;;;;;;;;;9.12;48.98;101895.66;6243827;23;19919;-79
2022/03/19 16:35:44;;;;;;;;;;;;;;;9.03;48.95;101900.72;6244049;23;19923;-79
2022/03/19 16:38:10;;;;;;;;;;;;;;;8.96;48.69;101908.16;6244567;23;19939;-79
2022/03/19 16:40:35;;;;;;;;;;;;;;;8.85;49.57;101903.31;6243682;23;20330;-78
2022/03/19 16:43:00;;;;;;;;;;;;;;;8.84;49.71;101906.47;6244189;23;20342;-79
2022/03/19 16:45:26;;;;;;;;;;;;;;;8.75;50.18;101914.25;6216999;23;19961;-79
2022/03/19 16:47:51;;;;;;;;;;;;;;;8.65;50.32;101909.44;6244196;23;19924;-79
2022/03/19 16:50:17;;;;;;;;;;;;;;;8.54;50.63;101914.03;6243538;23;19935;-79
2022/03/19 16:52:42;;;;;;;;;;;;;;;8.47;51.11;101911.19;6243674;23;19924;-79
2022/03/19 16:55:08;;;;;;;;;;;;;;;8.35;51.41;101912.22;6243941;23;20049;-79
2022/03/19 16:57:35;;;;;;;;;;;;;;;8.18;51.88;101919.09;6244748;23;19923;-95
2022/03/19 18:29:03;;;;;;;;;;;;;;;5.30;54.94;101993.81;6244214;23;19926;-80
2022/03/19 18:31:29;;;;;;;;;;;;;;;5.29;54.75;102013.44;6244012;23;20324;-80
2022/03/19 18:33:54;;;;;;;;;;;;;;;5.25;54.55;102010.59;6244111;23;19915;-80
2022/03/19 18:36:20;;;;;;;;;;;;;;;5.26;55.58;102009.44;6243539;23;19966;-81
2022/03/19 18:38:45;;;;;;;;;;;;;;;5.31;54.06;102016.63;6240992;23;20328;-83
2022/03/19 18:41:11;;;;;;;;;;;;;;;5.36;53.71;102019.13;6238943;23;19978;-84
2022/03/19 18:43:37;;;;;;;;;;;;;;;5.37;52.65;102021.53;6238855;23;19915;-84
2022/03/19 18:46:02;;;;;;;;;;;;;;;5.42;51.88;102017.72;6241306;23;19920;-83
2022/03/19 18:48:27;;;;;;;;;;;;;;;5.47;51.71;102025.69;6238952;23;19922;-83
2022/03/19 18:50:53;;;;;;;;;;;;;;;5.49;51.53;102018.69;6215641;23;19923;-83
2022/03/19 18:53:18;;;;;;;;;;;;;;;5.49;51.32;102034.41;6234053;23;19915;-84
2022/03/19 18:55:44;;;;;;;;;;;;;;;5.49;51.10;102037.97;6238607;23;20332;-84
2022/03/19 18:58:09;;;;;;;;;;;;;;;5.38;49.82;102028.63;6238778;23;20406;-85
2022/03/19 19:00:35;;;;;;;;;;;;;;;5.44;50.01;102040.19;6208607;23;19981;-85
2022/03/19 19:03:00;;;;;;;;;;;;;;;5.42;49.76;102040.50;6212230;23;19919;-84
2022/03/19 19:05:25;;;;;;;;;;;;;;;5.41;50.03;102046.38;6238550;23;20323;-85
2022/03/19 19:07:51;;;;;;;;;;;;;;;5.38;49.72;102047.09;6212294;23;19943;-87
2022/03/19 19:10:16;;;;;;;;;;;;;;;5.36;49.46;102050.19;6210923;23;19974;-86
2022/03/19 19:12:42;;;;;;;;;;;;;;;5.34;49.50;102054.47;6239755;23;19926;-86
2022/03/19 19:15:07;;;;;;;;;;;;;;;5.32;49.28;102052.06;6238985;23;19935;-85
2022/03/19 19:17:33;;;;;;;;;;;;;;;5.30;49.45;102048.84;6239990;23;19943;-85
2022/03/19 19:19:58;;;;;;;;;;;;;;;5.28;48.61;102055.84;6240364;23;19922;-85
2022/03/19 19:22:25;;;;;;;;;;;;;;;5.22;48.18;102063.56;6240805;23;19938;-86
2022/03/19 19:24:50;;;;;;;;;;;;;;;5.20;47.81;102057.63;6238127;23;19916;-85
2022/03/19 19:27:15;;;;;;;;;;;;;;;5.20;48.18;102060.38;6240074;23;19916;-86
2022/03/19 19:29:41;;;;;;;;;;;;;;;5.22;48.42;102060.03;6239139;23;19966;-83
2022/03/19 19:32:07;;;;;;;;;;;;;;;5.21;47.98;102061.97;6241004;23;19927;-84
2022/03/19 19:34:33;;;;;;;;;;;;;;;5.18;48.54;102065.41;6214191;23;19923;-85
2022/03/19 19:36:58;;;;;;;;;;;;;;;5.15;48.63;102064.19;6240254;23;19951;-85
2022/03/19 19:39:27;;;;;;;;;;;;;;;5.11;48.25;102066.03;6239795;23;20399;-85
2022/03/19 19:41:52;;;;;;;;;;;;;;;5.07;48.75;102064.31;6240176;23;19970;-84
2022/03/19 19:44:18;;;;;;;;;;;;;;;5.04;49.12;102067.78;6240041;23;19919;-84
2022/03/19 19:46:43;;;;;;;;;;;;;;;4.99;48.83;102066.09;6241448;23;19951;-84
2022/03/19 19:49:08;;;;;;;;;;;;;;;4.94;49.16;102054.53;6212711;23;19929;-84
2022/03/19 19:51:34;;;;;;;;;;;;;;;4.91;49.12;102064.28;6240593;23;19916;-84
2022/03/19 19:53:59;;;;;;;;;;;;;;;4.86;49.22;102070.03;6239206;23;19926;-84
2022/03/19 19:57:56;;;;;;;;;;;;;;;4.87;49.50;102074.38;6240769;23;20335;-85
2022/03/19 19:59:10;;;;;;;;;;;;;;;4.82;49.01;102071.06;6239721;23;19924;-84
2022/03/19 20:01:38;;;;;;;;;;;;;;;4.75;48.88;102079.09;6241205;23;19969;-84
2022/03/19 20:04:03;;;;;;;;;;;;;;;4.70;48.78;102085.66;6240477;23;20309;-84
2022/03/19 20:07:38;;;;;;;;;;;;;;;4.70;48.72;102080.94;6240842;23;19916;-84
2022/03/19 20:09:14;;;;;;;;;;;;;;;4.66;49.28;102084.75;6192014;23;19918;-84
2022/03/19 20:11:41;;;;;;;;;;;;;;;4.60;49.36;102091.63;6240651;23;20332;-84
2022/03/19 20:14:07;;;;;;;;;;;;;;;4.60;49.58;102095.19;6239763;23;19919;-84
2022/03/19 20:16:32;;;;;;;;;;;;;;;4.60;49.84;102091.63;6214141;23;19916;-84
2022/03/19 20:18:58;;;;;;;;;;;;;;;4.56;49.47;102091.53;6213534;23;19916;-84
2022/03/19 20:21:23;;;;;;;;;;;;;;;4.53;49.40;102091.44;6240674;23;20701;-84
2022/03/19 20:23:48;;;;;;;;;;;;;;;4.52;49.61;102098.06;6238806;23;20291;-84
2022/03/19 20:26:14;;;;;;;;;;;;;;;4.50;49.91;102095.66;6240983;23;19912;-84
2022/03/19 20:28:41;;;;;;;;;;;;;;;4.48;49.62;102100.72;6241509;23;19915;-84
2022/03/19 20:31:08;;;;;;;;;;;;;;;4.46;49.88;102099.44;6239547;23;19920;-84
2022/03/19 20:33:33;;;;;;;;;;;;;;;4.35;49.96;102101.88;6240472;23;20007;-84
2022/03/19 20:35:59;;;;;;;;;;;;;;;4.34;50.34;102100.25;6240846;23;19939;-84
2022/03/19 20:38:25;;;;;;;;;;;;;;;4.31;51.03;102106.44;6213825;23;19912;-84
2022/03/19 20:40:52;;;;;;;;;;;;;;;4.27;50.59;102100.03;6239877;23;20543;-84
2022/03/19 20:43:18;;;;;;;;;;;;;;;4.25;51.13;102099.56;6240327;23;20243;-85
2022/03/19 20:45:43;;;;;;;;;;;;;;;4.26;51.12;102098.44;6241255;23;19954;-84
2022/03/19 20:48:10;;;;;;;;;;;;;;;4.26;51.40;102103.91;6214258;23;19927;-84
2022/03/19 20:50:36;;;;;;;;;;;;;;;4.25;51.79;102096.81;6213572;23;19939;-84
2022/03/19 20:53:07;;;;;;;;;;;;;;;4.21;51.88;102099.44;6240877;23;20323;-84
2022/03/19 20:55:32;;;;;;;;;;;;;;;4.18;52.25;102096.59;6240210;23;19915;-84
2022/03/19 20:58:00;;;;;;;;;;;;;;;4.15;52.89;102103.59;6240940;23;19916;-84
2022/03/19 21:00:29;;;;;;;;;;;;;;;4.11;52.76;102108.16;6213601;23;20001;-84
2022/03/19 21:02:54;;;;;;;;;;;;;;;4.10;53.13;102119.47;6241172;23;20329;-84
2022/03/19 21:05:21;;;;;;;;;;;;;;;4.04;53.24;102098.91;6188140;23;19921;-84
2022/03/19 21:07:48;;;;;;;;;;;;;;;3.98;53.00;102109.28;6239014;23;19939;-84
2022/03/19 21:10:14;;;;;;;;;;;;;;;3.93;53.76;102116.94;6241258;23;19940;-83
2022/03/19 21:12:40;;;;;;;;;;;;;;;3.91;53.25;102113.75;6241735;23;19919;-85
2022/03/19 21:15:09;;;;;;;;;;;;;;;3.87;54.00;102119.13;6214882;23;20235;-84
2022/03/19 21:17:38;;;;;;;;;;;;;;;3.82;54.82;102121.28;6242869;23;20361;-85
2022/03/19 21:20:04;;;;;;;;;;;;;;;3.78;55.02;102114.88;6216132;23;19926;-86
2022/03/19 21:22:30;;;;;;;;;;;;;;;3.71;54.89;102121.75;6242420;23;19916;-83
2022/03/19 21:24:55;;;;;;;;;;;;;;;3.60;55.81;102120.53;6243005;23;19958;-83
2022/03/19 21:27:22;;;;;;;;;;;;;;;3.57;55.60;102115.75;6242451;23;19916;-83
2022/03/19 21:29:47;;;;;;;;;;;;;;;3.58;55.29;102122.84;6243126;23;19919;-83
2022/03/19 21:32:13;;;;;;;;;;;;;;;3.53;55.63;102120.31;6242504;23;19922;-83
2022/03/19 21:34:40;;;;;;;;;;;;;;;3.48;55.46;102136.97;6242715;23;20030;-83
2022/03/19 21:37:05;;;;;;;;;;;;;;;3.45;55.50;102129.44;6242484;23;20535;-83
2022/03/19 21:42:15;;;;;;;;;;;;;;;3.35;55.76;102124.38;6242192;23;20557;-83
2022/03/19 21:44:40;;;;;;;;;;;;;;;3.34;56.01;102139.22;6242398;23;20328;-83
2022/03/19 21:47:06;;;;;;;;;;;;;;;3.33;56.48;102134.88;6242781;23;19951;-83
2022/03/19 21:49:31;;;;;;;;;;;;;;;3.25;56.62;102133.00;6217046;23;20244;-83
2022/03/19 21:51:57;;;;;;;;;;;;;;;3.18;56.63;102130.81;6217947;23;19927;-83
2022/03/19 21:54:22;;;;;;;;;;;;;;;3.14;56.41;102140.06;6244129;23;19943;-83
2022/03/19 21:56:48;;;;;;;;;;;;;;;3.15;55.97;102136.19;6244704;23;20256;-83
2022/03/19 21:59:13;;;;;;;;;;;;;;;3.17;55.97;102145.66;6217539;23;19977;-83
2022/03/19 22:01:39;;;;;;;;;;;;;;;3.24;55.43;102147.84;6217589;23;20332;-82
2022/03/19 22:04:05;;;;;;;;;;;;;;;3.25;55.47;102146.72;6245435;23;19911;-83
2022/03/19 22:06:30;;;;;;;;;;;;;;;3.32;55.49;102148.94;6244601;23;20307;-83
2022/03/19 22:08:55;;;;;;;;;;;;;;;3.30;55.59;102152.00;6193359;23;19995;-83
2022/03/19 22:11:25;;;;;;;;;;;;;;;3.28;55.54;102143.31;6244577;23;20340;-83
2022/03/19 22:13:50;;;;;;;;;;;;;;;3.30;55.71;102149.25;6244665;23;19916;-83
2022/03/19 22:16:16;;;;;;;;;;;;;;;3.25;55.57;102160.44;6245017;23;19915;-83
2022/03/19 22:18:41;;;;;;;;;;;;;;;3.21;55.35;102151.28;6217850;23;19912;-83
2022/03/19 22:21:06;;;;;;;;;;;;;;;3.22;55.83;102158.38;6217842;23;19919;-83
2022/03/19 22:23:32;;;;;;;;;;;;;;;3.21;55.89;102154.03;6218001;23;19923;-83
2022/03/19 22:25:58;;;;;;;;;;;;;;;3.18;56.23;102143.72;6244857;23;19954;-83
2022/03/19 22:28:24;;;;;;;;;;;;;;;3.13;56.34;102146.66;6217883;23;19916;-83
2022/03/19 22:30:50;;;;;;;;;;;;;;;3.13;56.52;102146.66;6244548;23;19920;-83